createdAt,value
2022-11-06T00:00:18.643Z,93.30
2022-11-06T00:02:45.820Z,93.30
2022-11-06T00:05:32.487Z,93.40
2022-11-06T00:07:59.480Z,93.40
2022-11-06T00:10:26.253Z,93.50
2022-11-06T00:12:53.281Z,93.80
2022-11-06T00:15:20.242Z,93.50
2022-11-06T00:17:50.764Z,93.60
2022-11-06T00:20:17.830Z,93.60
2022-11-06T00:22:44.874Z,93.60
2022-11-06T00:25:11.864Z,93.60
2022-11-06T00:27:39.837Z,93.60
2022-11-06T00:30:08.576Z,93.60
2022-11-06T00:32:35.619Z,93.50
2022-11-06T00:35:05.473Z,93.50
2022-11-06T00:37:32.531Z,93.40
2022-11-06T00:39:59.598Z,93.40
2022-11-06T00:42:26.434Z,93.40
2022-11-06T00:44:53.364Z,93.30
2022-11-06T00:47:20.170Z,93.30
2022-11-06T00:49:47.156Z,93.30
2022-11-06T00:52:14.057Z,93.30
2022-11-06T00:54:40.976Z,93.30
2022-11-06T00:57:07.850Z,93.30
2022-11-06T00:59:34.738Z,93.30
2022-11-06T01:02:01.622Z,93.40
2022-11-06T01:04:28.623Z,93.40
2022-11-06T01:06:58.851Z,93.40
2022-11-06T01:09:27.127Z,93.40
2022-11-06T01:12:14.721Z,93.50
2022-11-06T01:14:42.628Z,93.50
2022-11-06T01:17:09.458Z,93.50
2022-11-06T01:19:36.525Z,93.50
2022-11-06T01:22:03.767Z,93.50
2022-11-06T01:24:30.866Z,93.50
2022-11-06T01:29:47.230Z,93.60
2022-11-06T01:32:14.104Z,93.50
2022-11-06T01:34:41.081Z,93.50
2022-11-06T01:37:11.737Z,93.50
2022-11-06T01:39:41.272Z,93.50
2022-11-06T01:42:10.533Z,93.40
2022-11-06T01:44:43.459Z,93.40
2022-11-06T01:47:21.839Z,93.40
2022-11-06T01:49:49.657Z,93.30
2022-11-06T01:52:17.005Z,93.30
2022-11-06T01:54:45.153Z,93.30
2022-11-06T01:57:12.404Z,93.30
2022-11-06T01:59:42.055Z,93.30
2022-11-06T02:02:09.242Z,93.40
2022-11-06T02:04:42.038Z,93.30
2022-11-06T02:07:09.266Z,93.40
2022-11-06T02:09:36.211Z,93.40
2022-11-06T02:12:11.025Z,93.50
2022-11-06T02:14:43.516Z,93.50
2022-11-06T02:17:28.941Z,93.60
2022-11-06T02:20:14.819Z,93.60
2022-11-06T02:22:53.581Z,93.50
2022-11-06T02:25:27.950Z,93.50
2022-11-06T02:28:03.345Z,93.40
2022-11-06T02:30:32.530Z,93.40
2022-11-06T02:33:10.813Z,93.40
2022-11-06T02:35:43.712Z,93.30
2022-11-06T02:38:24.652Z,93.30
2022-11-06T02:40:54.604Z,93.30
2022-11-06T02:43:23.964Z,93.20
2022-11-06T02:46:03.393Z,93.20
2022-11-06T02:48:33.136Z,93.30
2022-11-06T02:51:02.235Z,93.30
2022-11-06T02:53:30.721Z,93.30
2022-11-06T02:56:00.132Z,93.30
2022-11-06T02:58:38.815Z,93.30
2022-11-06T03:01:15.497Z,93.30
2022-11-06T03:03:47.345Z,93.20
2022-11-06T03:06:17.794Z,93.20
2022-11-06T03:08:47.841Z,93.20
2022-11-06T03:11:14.798Z,93.20
2022-11-06T03:13:49.498Z,93.30
2022-11-06T03:16:35.331Z,93.20
2022-11-06T03:19:17.453Z,93.20
2022-11-06T03:21:51.297Z,93.20
2022-11-06T03:24:22.656Z,93.20
2022-11-06T03:26:53.137Z,93.20
2022-11-06T03:29:33.720Z,93.20
2022-11-06T03:32:20.581Z,93.20
2022-11-06T03:34:55.296Z,93.20
2022-11-06T03:37:27.714Z,93.20
2022-11-06T03:39:56.898Z,93.10
2022-11-06T03:42:25.852Z,93.10
2022-11-06T03:44:56.112Z,93.10
2022-11-06T03:47:26.838Z,93.10
2022-11-06T03:49:57.076Z,93.10
2022-11-06T03:52:35.526Z,93.10
2022-11-06T03:55:08.051Z,93.10
2022-11-06T03:57:48.764Z,93.10
2022-11-06T04:00:17.216Z,93.10
2022-11-06T04:02:46.898Z,93.10
2022-11-06T04:05:19.496Z,93.10
2022-11-06T04:08:08.094Z,93.10
2022-11-06T04:10:54.591Z,93.10
2022-11-06T04:13:40.664Z,93.20
2022-11-06T04:16:08.716Z,93.20
2022-11-06T04:18:35.614Z,93.10
2022-11-06T04:21:23.214Z,93.10
2022-11-06T04:24:27.504Z,93.10
2022-11-06T04:27:13.393Z,93.10
2022-11-06T04:29:40.243Z,93.10
2022-11-06T04:32:19.001Z,93.10
2022-11-06T04:34:48.459Z,93.10
2022-11-06T04:37:18.304Z,93.10
2022-11-06T04:39:53.654Z,93.10
2022-11-06T04:42:37.359Z,93.20
2022-11-06T04:45:27.641Z,93.20
2022-11-06T04:47:55.066Z,93.10
2022-11-06T04:50:23.390Z,93.10
2022-11-06T04:52:50.964Z,93.10
2022-11-06T04:55:18.106Z,93.10
2022-11-06T04:57:44.869Z,93.10
2022-11-06T05:00:12.934Z,93.10
2022-11-06T05:02:39.902Z,93.10
2022-11-06T05:05:07.156Z,93.10
2022-11-06T05:07:34.061Z,93.10
2022-11-06T05:10:00.929Z,93.10
2022-11-06T05:12:30.175Z,93.10
2022-11-06T05:14:57.115Z,93.20
2022-11-06T05:17:23.919Z,93.20
2022-11-06T05:19:50.800Z,93.30
2022-11-06T05:22:36.618Z,93.30
2022-11-06T05:25:03.616Z,93.30
2022-11-06T05:27:30.458Z,93.30
2022-11-06T05:29:57.249Z,93.30
2022-11-06T05:32:24.131Z,93.30
2022-11-06T05:34:51.070Z,93.30
2022-11-06T05:37:18.064Z,93.20
2022-11-06T05:39:44.999Z,93.20
2022-11-06T05:42:11.835Z,93.20
2022-11-06T05:44:38.945Z,93.20
2022-11-06T05:47:05.784Z,93.10
2022-11-06T05:49:35.738Z,93.10
2022-11-06T05:52:05.683Z,93.10
2022-11-06T05:54:33.128Z,93.20
2022-11-06T05:57:00.009Z,93.20
2022-11-06T05:59:27.032Z,93.20
2022-11-06T06:01:54.020Z,93.20
2022-11-06T06:04:21.020Z,93.10
2022-11-06T06:06:47.957Z,93.20
2022-11-06T06:09:14.848Z,93.20
2022-11-06T06:11:41.718Z,93.20
2022-11-06T06:14:08.723Z,93.20
2022-11-06T06:16:35.551Z,93.20
2022-11-06T06:19:05.554Z,93.20
2022-11-06T06:21:32.673Z,93.20
2022-11-06T06:23:59.478Z,93.20
2022-11-06T06:26:26.297Z,93.20
2022-11-06T06:28:53.178Z,93.20
2022-11-06T06:31:20.255Z,93.20
2022-11-06T06:33:47.161Z,93.20
2022-11-06T06:36:14.439Z,93.20
2022-11-06T06:38:41.601Z,93.20
2022-11-06T06:41:13.740Z,93.20
2022-11-06T06:43:44.046Z,93.20
2022-11-06T06:46:11.245Z,93.20
2022-11-06T06:48:38.366Z,93.20
2022-11-06T06:51:06.515Z,93.20
2022-11-06T06:53:34.319Z,93.10
2022-11-06T06:56:01.952Z,93.10
2022-11-06T06:58:29.553Z,93.10
2022-11-06T07:01:06.182Z,93.10
2022-11-06T07:03:33.318Z,93.10
2022-11-06T07:06:00.359Z,93.10
2022-11-06T07:08:27.693Z,93.00
2022-11-06T07:11:04.981Z,93.00
2022-11-06T07:13:36.370Z,93.00
2022-11-06T07:16:04.787Z,92.90
2022-11-06T07:18:31.599Z,93.00
2022-11-06T07:20:59.292Z,92.90
2022-11-06T07:23:26.174Z,92.90
2022-11-06T07:25:54.205Z,92.90
2022-11-06T07:28:21.253Z,92.80
2022-11-06T07:30:48.522Z,92.80
2022-11-06T07:33:15.510Z,92.80
2022-11-06T07:35:42.486Z,92.80
2022-11-06T07:38:09.484Z,92.80
2022-11-06T07:40:37.173Z,92.70
2022-11-06T07:43:04.988Z,92.70
2022-11-06T07:45:34.404Z,92.70
2022-11-06T07:48:01.389Z,92.60
2022-11-06T07:50:28.586Z,92.60
2022-11-06T07:52:55.745Z,92.60
2022-11-06T07:55:22.668Z,92.50
2022-11-06T07:57:49.794Z,92.50
2022-11-06T08:00:16.822Z,92.50
2022-11-06T08:02:43.693Z,92.50
2022-11-06T08:05:10.835Z,92.50
2022-11-06T08:07:37.919Z,92.50
2022-11-06T08:10:05.083Z,92.50
2022-11-06T08:12:31.994Z,92.40
2022-11-06T08:14:59.011Z,92.40
2022-11-06T08:17:25.858Z,92.30
2022-11-06T08:19:52.914Z,92.30
2022-11-06T08:22:19.975Z,92.20
2022-11-06T08:24:46.865Z,92.20
2022-11-06T08:27:13.787Z,92.20
2022-11-06T08:29:41.808Z,92.20
2022-11-06T08:32:08.861Z,92.10
2022-11-06T08:34:36.267Z,92.10
2022-11-06T08:37:03.366Z,92.00
2022-11-06T08:39:30.284Z,91.90
2022-11-06T08:41:57.344Z,91.90
2022-11-06T08:44:24.859Z,91.70
2022-11-06T08:46:52.308Z,91.50
2022-11-06T08:49:19.824Z,91.90
2022-11-06T08:51:46.877Z,91.60
2022-11-06T08:54:13.847Z,91.50
2022-11-06T08:56:40.762Z,91.60
2022-11-06T08:59:07.700Z,91.60
2022-11-06T09:01:34.691Z,91.70
2022-11-06T09:04:01.794Z,91.70
2022-11-06T09:06:28.807Z,91.70
2022-11-06T09:08:56.670Z,91.70
2022-11-06T09:11:23.558Z,91.60
2022-11-06T09:13:50.615Z,91.70
2022-11-06T09:16:17.601Z,91.70
2022-11-06T09:18:44.469Z,91.70
2022-11-06T09:21:11.388Z,91.40
2022-11-06T09:23:38.198Z,91.50
2022-11-06T09:26:05.219Z,91.50
2022-11-06T09:28:32.158Z,91.50
2022-11-06T09:30:59.213Z,91.40
2022-11-06T09:33:26.194Z,91.40
2022-11-06T09:35:53.208Z,91.30
2022-11-06T09:38:20.243Z,91.30
2022-11-06T09:40:52.392Z,91.30
2022-11-06T09:44:03.612Z,91.20
2022-11-06T09:46:26.470Z,91.10
2022-11-06T09:48:58.779Z,91.10
2022-11-06T09:51:31.941Z,91.00
2022-11-06T09:53:59.288Z,91.00
2022-11-06T09:56:28.976Z,91.00
2022-11-06T09:58:55.881Z,91.00
2022-11-06T10:01:27.289Z,90.90
2022-11-06T10:03:58.673Z,90.90
2022-11-06T10:06:26.223Z,90.90
2022-11-06T10:08:55.677Z,90.80
2022-11-06T10:11:30.682Z,90.90
2022-11-06T10:13:57.565Z,90.90
2022-11-06T10:16:49.216Z,90.90
2022-11-06T10:19:25.247Z,90.90
2022-11-06T10:21:58.244Z,90.90
2022-11-06T10:24:43.886Z,90.70
2022-11-06T10:27:18.323Z,90.60
2022-11-06T10:30:02.528Z,90.60
2022-11-06T10:32:33.080Z,90.70
2022-11-06T10:35:05.388Z,90.80
2022-11-06T10:37:54.844Z,90.80
2022-11-06T10:40:27.055Z,90.80
2022-11-06T10:43:03.986Z,90.70
2022-11-06T10:45:30.960Z,90.70
2022-11-06T10:48:06.524Z,90.70
2022-11-06T10:50:41.127Z,90.80
2022-11-06T10:53:33.453Z,90.60
2022-11-06T10:56:10.865Z,90.60
2022-11-06T10:58:38.336Z,90.60
2022-11-06T11:01:05.960Z,90.50
2022-11-06T11:03:35.495Z,90.60
2022-11-06T11:06:04.216Z,90.70
2022-11-06T11:08:31.168Z,90.70
2022-11-06T11:11:25.110Z,90.60
2022-11-06T11:14:01.394Z,90.40
2022-11-06T11:16:29.803Z,90.40
2022-11-06T11:19:14.264Z,90.30
2022-11-06T11:21:54.450Z,90.30
2022-11-06T11:24:21.345Z,90.40
2022-11-06T11:26:49.447Z,90.30
2022-11-06T11:29:33.135Z,90.30
2022-11-06T11:32:01.977Z,90.30
2022-11-06T11:34:30.205Z,90.20
2022-11-06T11:37:01.647Z,90.10
2022-11-06T11:39:30.907Z,90.10
2022-11-06T11:42:17.696Z,89.60
2022-11-06T11:44:44.588Z,89.60
2022-11-06T11:47:22.467Z,88.90
2022-11-06T11:49:49.605Z,89.10
2022-11-06T11:52:19.608Z,89.20
2022-11-06T11:54:53.825Z,89.10
2022-11-06T11:57:25.274Z,88.80
2022-11-06T11:59:57.444Z,88.80
2022-11-06T12:02:29.820Z,88.70
2022-11-06T12:05:37.157Z,88.80
2022-11-06T12:08:12.880Z,88.70
2022-11-06T12:10:41.606Z,88.30
2022-11-06T12:13:16.871Z,88.50
2022-11-06T12:15:50.090Z,88.50
2022-11-06T12:18:21.108Z,88.50
2022-11-06T12:23:06.423Z,87.70
2022-11-06T12:25:41.736Z,88.10
2022-11-06T12:28:17.400Z,87.90
2022-11-06T12:30:50.228Z,87.80
2022-11-06T12:33:27.414Z,87.70
2022-11-06T12:36:14.427Z,87.70
2022-11-06T12:38:46.340Z,87.80
2022-11-06T12:41:28.961Z,87.80
2022-11-06T12:43:57.091Z,87.10
2022-11-06T12:46:51.516Z,87.30
2022-11-06T12:49:56.468Z,87.30
2022-11-06T12:52:59.780Z,86.90
2022-11-06T12:55:37.476Z,86.90
2022-11-06T12:58:04.607Z,86.90
2022-11-06T13:00:54.274Z,86.90
2022-11-06T13:04:00.506Z,86.70
2022-11-06T13:06:42.058Z,86.70
2022-11-06T13:09:17.968Z,86.90
2022-11-06T13:12:09.008Z,86.90
2022-11-06T13:15:27.284Z,86.90
2022-11-06T13:18:28.026Z,86.60
2022-11-06T13:21:11.794Z,86.60
2022-11-06T13:23:48.893Z,86.40
2022-11-06T13:26:34.050Z,86.60
2022-11-06T13:29:05.665Z,86.60
2022-11-06T13:31:41.715Z,86.80
2022-11-06T13:34:17.274Z,86.90
2022-11-06T13:36:45.851Z,86.90
2022-11-06T13:39:24.620Z,86.90
2022-11-06T13:41:53.157Z,86.70
2022-11-06T13:44:22.572Z,86.80
2022-11-06T13:46:55.888Z,86.90
2022-11-06T13:49:32.179Z,86.80
2022-11-06T13:52:05.619Z,86.80
2022-11-06T13:55:03.963Z,86.50
2022-11-06T13:57:49.001Z,86.30
2022-11-06T14:00:42.031Z,86.20
2022-11-06T14:03:33.728Z,85.60
2022-11-06T14:06:08.492Z,85.10
2022-11-06T14:08:40.877Z,85.50
2022-11-06T14:11:14.063Z,85.80
2022-11-06T14:13:42.380Z,85.60
2022-11-06T14:16:18.257Z,85.60
2022-11-06T14:19:11.567Z,84.70
2022-11-06T14:21:47.970Z,84.40
2022-11-06T14:24:38.011Z,84.50
2022-11-06T14:27:10.490Z,84.40
2022-11-06T14:29:37.573Z,84.60
2022-11-06T14:32:19.930Z,84.30
2022-11-06T14:34:47.159Z,84.30
2022-11-06T14:37:20.101Z,84.40
2022-11-06T14:39:56.343Z,84.60
2022-11-06T14:42:43.005Z,84.60
2022-11-06T14:45:12.181Z,85.10
2022-11-06T14:47:46.423Z,85.80
2022-11-06T14:50:19.583Z,86.10
2022-11-06T14:52:55.910Z,86.70
2022-11-06T14:55:42.585Z,87.70
2022-11-06T14:58:27.201Z,87.90
2022-11-06T15:01:24.100Z,87.30
2022-11-06T15:04:01.983Z,87.60
2022-11-06T15:06:29.015Z,88.00
2022-11-06T15:08:57.936Z,88.40
2022-11-06T15:11:34.503Z,88.70
2022-11-06T15:14:06.323Z,89.00
2022-11-06T15:16:55.990Z,89.30
2022-11-06T15:19:38.291Z,89.70
2022-11-06T15:22:28.112Z,89.90
2022-11-06T15:25:06.254Z,90.00
2022-11-06T15:27:45.309Z,90.10
2022-11-06T15:30:18.153Z,90.20
2022-11-06T15:32:47.130Z,90.30
2022-11-06T15:35:25.418Z,90.40
2022-11-06T15:37:56.746Z,90.50
2022-11-06T15:40:30.260Z,90.60
2022-11-06T15:43:01.185Z,90.80
2022-11-06T15:45:32.674Z,90.90
2022-11-06T15:48:03.755Z,91.00
2022-11-06T15:50:35.746Z,91.10
2022-11-06T15:53:17.815Z,91.20
2022-11-06T15:55:56.909Z,91.40
2022-11-06T15:58:31.274Z,91.40
2022-11-06T16:01:00.865Z,91.50
2022-11-06T16:03:54.937Z,91.60
2022-11-06T16:06:22.081Z,91.70
2022-11-06T16:08:50.489Z,91.70
2022-11-06T16:11:20.276Z,91.80
2022-11-06T16:13:48.058Z,91.90
2022-11-06T16:16:36.131Z,92.00
2022-11-06T16:19:06.731Z,92.00
2022-11-06T16:21:36.014Z,92.00
2022-11-06T16:24:17.598Z,92.10
2022-11-06T16:26:50.433Z,92.10
2022-11-06T16:29:24.410Z,92.20
2022-11-06T16:32:20.485Z,92.30
2022-11-06T16:34:48.367Z,92.30
2022-11-06T16:37:18.624Z,92.40
2022-11-06T16:39:50.985Z,92.40
2022-11-06T16:42:31.366Z,92.50
2022-11-06T16:45:08.642Z,92.50
2022-11-06T16:47:36.190Z,92.60
2022-11-06T16:50:16.875Z,92.60
2022-11-06T16:52:44.361Z,92.70
2022-11-06T16:55:16.793Z,92.80
2022-11-06T16:57:50.156Z,92.80
2022-11-06T17:00:20.259Z,92.90
2022-11-06T17:02:59.055Z,92.90
2022-11-06T17:05:36.804Z,92.90
2022-11-06T17:08:19.136Z,92.90
2022-11-06T17:10:58.199Z,93.00
2022-11-06T17:13:32.316Z,93.00
2022-11-06T17:16:05.446Z,93.10
2022-11-06T17:18:35.390Z,93.10
2022-11-06T17:21:17.358Z,93.10
2022-11-06T17:23:45.682Z,93.20
2022-11-06T17:26:20.730Z,93.20
2022-11-06T17:28:49.130Z,93.20
2022-11-06T17:31:30.276Z,93.20
2022-11-06T17:33:57.534Z,93.30
2022-11-06T17:36:27.766Z,93.30
2022-11-06T17:38:56.602Z,93.30
2022-11-06T17:41:31.003Z,93.40
2022-11-06T17:44:03.739Z,93.40
2022-11-06T17:46:34.111Z,93.50
2022-11-06T17:49:02.483Z,93.50
2022-11-06T17:51:48.637Z,93.50
2022-11-06T17:54:20.041Z,93.60
2022-11-06T17:56:49.992Z,93.60
2022-11-06T17:59:17.160Z,93.60
2022-11-06T18:01:44.517Z,93.70
2022-11-06T18:04:11.852Z,93.70
2022-11-06T18:06:45.549Z,93.70
2022-11-06T18:09:14.936Z,93.80
2022-11-06T18:11:45.363Z,93.80
2022-11-06T18:14:12.745Z,93.80
2022-11-06T18:16:43.999Z,93.80
2022-11-06T18:19:15.181Z,93.80
2022-11-06T18:21:42.235Z,93.80
2022-11-06T18:24:29.918Z,93.80
2022-11-06T18:27:02.769Z,93.90
2022-11-06T18:29:49.771Z,93.90
2022-11-06T18:32:17.076Z,93.90
2022-11-06T18:34:51.656Z,93.90
2022-11-06T18:37:18.782Z,93.90
2022-11-06T18:39:45.822Z,93.90
2022-11-06T18:42:12.944Z,93.80
2022-11-06T18:44:41.693Z,93.80
2022-11-06T18:47:08.982Z,93.80
2022-11-06T18:49:36.083Z,93.80
2022-11-06T18:52:11.271Z,93.90
2022-11-06T18:54:39.766Z,93.90
2022-11-06T18:57:07.189Z,93.90
2022-11-06T18:59:34.264Z,93.90
2022-11-06T19:02:02.162Z,93.90
2022-11-06T19:04:44.252Z,93.90
2022-11-06T19:07:15.668Z,93.90
2022-11-06T19:09:42.852Z,93.90
2022-11-06T19:12:12.541Z,93.90
2022-11-06T19:14:45.783Z,93.90
2022-11-06T19:17:22.546Z,93.90
2022-11-06T19:19:50.155Z,93.90
2022-11-06T19:22:17.551Z,93.90
2022-11-06T19:24:44.890Z,93.90
2022-11-06T19:27:12.132Z,93.90
2022-11-06T19:29:39.211Z,93.80
2022-11-06T19:32:06.742Z,93.80
2022-11-06T19:34:45.654Z,93.80
2022-11-06T19:37:56.276Z,93.70
2022-11-06T19:40:24.344Z,93.70
2022-11-06T19:42:51.668Z,93.70
2022-11-06T19:45:22.376Z,93.70
2022-11-06T19:47:49.873Z,93.70
2022-11-06T19:50:39.187Z,93.70
2022-11-06T19:53:07.346Z,93.70
2022-11-06T19:55:38.892Z,93.70
2022-11-06T19:58:08.772Z,93.70
2022-11-06T20:00:37.343Z,93.60
2022-11-06T20:03:08.259Z,93.60
2022-11-06T20:05:36.163Z,94.00
2022-11-06T20:12:01.695Z,93.80
2022-11-06T20:14:29.275Z,93.80
2022-11-06T20:16:57.018Z,93.80
2022-11-06T20:19:24.333Z,93.90
2022-11-06T20:21:51.373Z,93.90
2022-11-06T20:24:21.494Z,93.90
2022-11-06T20:26:48.806Z,93.90
2022-11-06T20:29:27.639Z,93.90
2022-11-06T20:31:55.091Z,93.90
2022-11-06T20:34:22.250Z,93.90
2022-11-06T20:36:51.919Z,93.90
2022-11-06T20:39:19.133Z,93.90
2022-11-06T20:41:47.049Z,93.90
2022-11-06T20:44:15.719Z,93.90
2022-11-06T20:46:44.301Z,93.90
2022-11-06T20:49:14.829Z,93.90
2022-11-06T20:52:11.548Z,93.90
2022-11-06T20:57:17.175Z,93.90
2022-11-06T20:59:47.411Z,93.90
2022-11-06T21:02:14.935Z,93.90
2022-11-06T21:04:42.408Z,93.80
2022-11-06T21:07:12.816Z,93.90
2022-11-06T21:09:41.358Z,93.90
2022-11-06T21:12:09.089Z,94.10
2022-11-06T21:14:36.224Z,93.90
2022-11-06T21:17:03.839Z,93.90
2022-11-06T21:19:41.962Z,93.90
2022-11-06T21:22:09.124Z,93.90
2022-11-06T21:24:36.310Z,94.00
2022-11-06T21:27:03.266Z,93.90
2022-11-06T21:29:30.381Z,93.90
2022-11-06T21:32:08.396Z,93.90
2022-11-06T21:34:35.430Z,93.90
2022-11-06T21:37:03.253Z,93.90
2022-11-06T21:40:10.097Z,93.90
2022-11-06T21:42:37.295Z,93.90
2022-11-06T21:45:04.728Z,93.90
2022-11-06T21:47:34.519Z,93.90
2022-11-06T21:50:01.617Z,93.90
2022-11-06T21:52:49.032Z,93.90
2022-11-06T21:55:34.345Z,93.90
2022-11-06T21:58:04.562Z,93.90
2022-11-06T22:00:31.837Z,93.90
2022-11-06T22:03:15.419Z,93.90
2022-11-06T22:05:46.788Z,94.00
2022-11-06T22:08:16.651Z,94.00
2022-11-06T22:10:48.347Z,94.00
2022-11-06T22:13:27.995Z,94.00
2022-11-06T22:16:03.798Z,94.00
2022-11-06T22:18:30.981Z,94.00
2022-11-06T22:21:14.759Z,94.00
2022-11-06T22:23:42.923Z,94.00
2022-11-06T22:26:23.698Z,94.00
2022-11-06T22:28:59.171Z,94.00
2022-11-06T22:31:29.414Z,94.00
2022-11-06T22:33:59.995Z,94.10
2022-11-06T22:36:29.673Z,94.00
2022-11-06T22:39:03.946Z,94.10
2022-11-06T22:41:34.551Z,94.10
2022-11-06T22:44:05.228Z,94.10
2022-11-06T22:46:33.371Z,94.10
2022-11-06T22:49:01.927Z,94.10
2022-11-06T22:51:52.453Z,94.10
2022-11-06T22:54:28.265Z,94.10
2022-11-06T22:56:59.670Z,94.10
2022-11-06T22:59:32.242Z,94.20
2022-11-06T23:02:13.615Z,94.10
2022-11-06T23:04:43.855Z,94.40
2022-11-06T23:07:11.139Z,94.20
2022-11-06T23:09:38.613Z,94.30
2022-11-06T23:12:08.837Z,94.30
2022-11-06T23:14:47.554Z,94.40
2022-11-06T23:17:16.073Z,94.40
2022-11-06T23:23:14.972Z,94.30
2022-11-06T23:25:56.679Z,94.40
2022-11-06T23:28:23.719Z,94.40
2022-11-06T23:30:50.827Z,94.50
2022-11-06T23:33:17.883Z,94.50
2022-11-06T23:35:44.926Z,94.50
2022-11-06T23:38:12.092Z,94.50
2022-11-06T23:40:44.029Z,94.50
2022-11-06T23:43:11.944Z,94.50
2022-11-06T23:45:51.637Z,94.50
2022-11-06T23:48:18.784Z,94.40
2022-11-06T23:50:52.435Z,94.30
2022-11-06T23:58:07.336Z,94.30
